createdAt,value
2017-05-05T00:00:06.443Z,1004.81
2017-05-05T00:00:46.965Z,1004.85
2017-05-05T00:01:27.484Z,1004.83
2017-05-05T00:02:08.007Z,1004.81
2017-05-05T00:02:48.526Z,1004.82
2017-05-05T00:03:29.059Z,1004.83
2017-05-05T00:04:09.581Z,1004.83
2017-05-05T00:04:50.123Z,1004.83
2017-05-05T00:05:30.633Z,1004.81
2017-05-05T00:06:11.155Z,1004.82
2017-05-05T00:06:51.688Z,1004.82
2017-05-05T00:07:32.195Z,1004.77
2017-05-05T00:08:12.706Z,1004.81
2017-05-05T00:08:53.220Z,1004.79
2017-05-05T00:09:33.750Z,1004.8
2017-05-05T00:10:14.276Z,1004.78
2017-05-05T00:10:54.819Z,1004.8
2017-05-05T00:11:35.336Z,1004.79
2017-05-05T00:12:15.851Z,1004.75
2017-05-05T00:12:56.366Z,1004.79
2017-05-05T00:13:36.903Z,1004.76
2017-05-05T00:14:17.422Z,1004.79
2017-05-05T00:14:57.945Z,1004.76
2017-05-05T00:15:38.458Z,1004.76
2017-05-05T00:16:18.981Z,1004.79
2017-05-05T00:16:59.497Z,1004.75
2017-05-05T00:17:40.015Z,1004.73
2017-05-05T00:18:20.537Z,1004.77
2017-05-05T00:19:01.067Z,1004.78
2017-05-05T00:19:41.601Z,1004.82
2017-05-05T00:20:22.124Z,1004.8
2017-05-05T00:21:02.644Z,1004.79
2017-05-05T00:21:43.174Z,1004.78
2017-05-05T00:22:23.695Z,1004.81
2017-05-05T00:23:04.234Z,1004.79
2017-05-05T00:23:44.761Z,1004.75
2017-05-05T00:24:25.296Z,1004.76
2017-05-05T00:25:05.804Z,1004.79
2017-05-05T00:25:46.318Z,1004.79
2017-05-05T00:26:26.843Z,1004.78
2017-05-05T00:27:07.365Z,1004.76
2017-05-05T00:27:47.887Z,1004.84
2017-05-05T00:28:28.452Z,1004.82
2017-05-05T00:29:08.968Z,1004.82
2017-05-05T00:29:49.554Z,1004.8
2017-05-05T00:30:30.086Z,1004.79
2017-05-05T00:31:10.607Z,1004.82
2017-05-05T00:31:51.127Z,1004.83
2017-05-05T00:32:31.635Z,1004.82
2017-05-05T00:33:12.153Z,1004.82
2017-05-05T00:33:52.682Z,1004.82
2017-05-05T00:34:33.195Z,1004.84
2017-05-05T00:35:13.705Z,1004.8
2017-05-05T00:35:54.264Z,1004.84
2017-05-05T00:36:34.791Z,1004.85
2017-05-05T00:37:15.309Z,1004.84
2017-05-05T00:37:55.825Z,1004.85
2017-05-05T00:38:36.344Z,1004.87
2017-05-05T00:39:16.860Z,1004.87
2017-05-05T00:39:57.373Z,1004.84
2017-05-05T00:40:37.896Z,1004.85
2017-05-05T00:41:18.419Z,1004.81
2017-05-05T00:41:58.940Z,1004.83
2017-05-05T00:42:39.475Z,1004.84
2017-05-05T00:43:20.002Z,1004.78
2017-05-05T00:44:00.518Z,1004.81
2017-05-05T00:44:41.030Z,1004.77
2017-05-05T00:45:21.551Z,1004.79
2017-05-05T00:46:02.060Z,1004.81
2017-05-05T00:46:42.577Z,1004.78
2017-05-05T00:47:23.124Z,1004.81
2017-05-05T00:48:03.691Z,1004.76
2017-05-05T00:48:44.147Z,1004.76
2017-05-05T00:49:24.655Z,1004.82
2017-05-05T00:50:05.176Z,1004.77
2017-05-05T00:50:45.693Z,1004.8
2017-05-05T00:51:26.211Z,1004.75
2017-05-05T00:52:06.726Z,1004.77
2017-05-05T00:52:47.255Z,1004.77
2017-05-05T00:53:27.780Z,1004.75
2017-05-05T00:54:08.308Z,1004.73
2017-05-05T00:54:48.816Z,1004.8
2017-05-05T00:55:29.325Z,1004.74
2017-05-05T00:56:09.874Z,1004.74
2017-05-05T00:56:50.380Z,1004.72
2017-05-05T00:57:30.923Z,1004.72
2017-05-05T00:58:11.425Z,1004.69
2017-05-05T00:58:51.954Z,1004.66
2017-05-05T00:59:32.471Z,1004.67
2017-05-05T01:00:12.987Z,1004.68
2017-05-05T01:00:53.510Z,1004.69
2017-05-05T01:01:34.038Z,1004.68
2017-05-05T01:02:14.555Z,1004.66
2017-05-05T01:02:55.088Z,1004.69
2017-05-05T01:03:35.609Z,1004.68
2017-05-05T01:04:16.139Z,1004.67
2017-05-05T01:04:56.651Z,1004.65
2017-05-05T01:05:37.174Z,1004.69
2017-05-05T01:06:17.697Z,1004.73
2017-05-05T01:06:58.235Z,1004.69
2017-05-05T01:07:38.765Z,1004.7
2017-05-05T01:08:19.287Z,1004.67
2017-05-05T01:08:59.810Z,1004.7
2017-05-05T01:09:40.325Z,1004.68
2017-05-05T01:10:20.850Z,1004.68
2017-05-05T01:11:01.368Z,1004.71
2017-05-05T01:11:41.888Z,1004.68
2017-05-05T01:12:22.408Z,1004.7
2017-05-05T01:13:02.929Z,1004.71
2017-05-05T01:13:43.444Z,1004.73
2017-05-05T01:14:23.974Z,1004.72
2017-05-05T01:15:04.504Z,1004.71
2017-05-05T01:15:45.031Z,1004.76
2017-05-05T01:16:25.553Z,1004.76
2017-05-05T01:17:06.073Z,1004.77
2017-05-05T01:17:46.587Z,1004.72
2017-05-05T01:18:27.097Z,1004.78
2017-05-05T01:19:07.631Z,1004.73
2017-05-05T01:19:48.153Z,1004.77
2017-05-05T01:20:28.677Z,1004.75
2017-05-05T01:21:09.199Z,1004.75
2017-05-05T01:21:49.719Z,1004.75
2017-05-05T01:22:30.258Z,1004.73
2017-05-05T01:23:10.769Z,1004.75
2017-05-05T01:23:51.303Z,1004.81
2017-05-05T01:24:31.827Z,1004.8
2017-05-05T01:25:12.352Z,1004.73
2017-05-05T01:25:52.873Z,1004.76
2017-05-05T01:26:33.462Z,1004.75
2017-05-05T01:27:13.909Z,1004.73
2017-05-05T01:27:54.437Z,1004.79
2017-05-05T01:28:34.958Z,1004.83
2017-05-05T01:29:15.473Z,1004.81
2017-05-05T01:29:56.001Z,1004.83
2017-05-05T01:30:36.519Z,1004.79
2017-05-05T01:31:17.039Z,1004.8
2017-05-05T01:31:57.550Z,1004.82
2017-05-05T01:32:38.084Z,1004.8
2017-05-05T01:33:18.608Z,1004.81
2017-05-05T01:33:59.131Z,1004.8
2017-05-05T01:34:39.654Z,1004.82
2017-05-05T01:35:20.171Z,1004.87
2017-05-05T01:36:00.689Z,1004.85
2017-05-05T01:36:41.210Z,1004.79
2017-05-05T01:37:21.731Z,1004.85
2017-05-05T01:38:02.248Z,1004.83
2017-05-05T01:38:42.764Z,1004.86
2017-05-05T01:39:23.288Z,1004.84
2017-05-05T01:40:03.820Z,1004.81
2017-05-05T01:40:44.344Z,1004.83
2017-05-05T01:41:24.864Z,1004.83
2017-05-05T01:42:05.396Z,1004.83
2017-05-05T01:42:45.927Z,1004.79
2017-05-05T01:43:26.445Z,1004.88
2017-05-05T01:44:06.963Z,1004.86
2017-05-05T01:44:47.477Z,1004.86
2017-05-05T01:45:28.009Z,1004.84
2017-05-05T01:46:08.641Z,1004.84
2017-05-05T01:46:49.087Z,1004.84
2017-05-05T01:47:29.608Z,1004.83
2017-05-05T01:48:10.116Z,1004.83
2017-05-05T01:48:50.620Z,1004.8
2017-05-05T01:49:31.165Z,1004.83
2017-05-05T01:50:11.675Z,1004.81
2017-05-05T01:50:52.207Z,1004.85
2017-05-05T01:51:32.734Z,1004.85
2017-05-05T01:52:13.267Z,1004.87
2017-05-05T01:52:53.784Z,1004.85
2017-05-05T01:53:34.309Z,1004.81
2017-05-05T01:54:14.828Z,1004.81
2017-05-05T01:54:55.365Z,1004.85
2017-05-05T01:55:35.883Z,1004.9
2017-05-05T01:56:16.412Z,1004.82
2017-05-05T01:56:56.924Z,1004.82
2017-05-05T01:57:37.451Z,1004.82
2017-05-05T01:58:17.973Z,1004.88
2017-05-05T01:58:58.495Z,1004.89
2017-05-05T01:59:39.020Z,1004.87
2017-05-05T02:00:19.536Z,1004.9
2017-05-05T02:01:00.058Z,1004.86
2017-05-05T02:01:40.589Z,1004.9
2017-05-05T02:02:21.115Z,1004.86
2017-05-05T02:03:01.621Z,1004.88
2017-05-05T02:03:42.149Z,1004.91
2017-05-05T02:04:22.668Z,1004.9
2017-05-05T02:05:03.221Z,1004.87
2017-05-05T02:05:43.737Z,1004.91
2017-05-05T02:06:24.252Z,1004.91
2017-05-05T02:07:04.781Z,1004.93
2017-05-05T02:07:45.291Z,1004.89
2017-05-05T02:08:25.789Z,1004.91
2017-05-05T02:09:06.307Z,1004.89
2017-05-05T02:09:46.872Z,1004.84
2017-05-05T02:10:27.351Z,1004.87
2017-05-05T02:11:07.860Z,1004.87
2017-05-05T02:11:48.386Z,1004.87
2017-05-05T02:12:28.909Z,1004.84
2017-05-05T02:13:09.437Z,1004.84
2017-05-05T02:13:49.949Z,1004.86
2017-05-05T02:14:30.484Z,1004.85
2017-05-05T02:15:11.022Z,1004.85
2017-05-05T02:15:51.552Z,1004.83
2017-05-05T02:16:32.068Z,1004.8
2017-05-05T02:17:12.637Z,1004.84
2017-05-05T02:17:53.093Z,1004.87
2017-05-05T02:18:33.620Z,1004.82
2017-05-05T02:19:14.134Z,1004.86
2017-05-05T02:19:54.662Z,1004.85
2017-05-05T02:20:35.191Z,1004.83
2017-05-05T02:21:15.729Z,1004.86
2017-05-05T02:21:56.236Z,1004.9
2017-05-05T02:22:36.753Z,1004.86
2017-05-05T02:23:17.268Z,1004.86
2017-05-05T02:23:57.773Z,1004.85
2017-05-05T02:24:38.303Z,1004.87
2017-05-05T02:25:18.815Z,1004.86
2017-05-05T02:25:59.345Z,1004.9
2017-05-05T02:26:39.867Z,1004.92
2017-05-05T02:27:20.411Z,1004.87
2017-05-05T02:28:00.955Z,1004.92
2017-05-05T02:28:41.473Z,1004.9
2017-05-05T02:29:21.979Z,1004.91
2017-05-05T02:30:02.495Z,1004.91
2017-05-05T02:30:43.013Z,1004.88
2017-05-05T02:31:23.542Z,1004.92
2017-05-05T02:32:04.068Z,1004.9
2017-05-05T02:32:44.596Z,1004.93
2017-05-05T02:33:25.124Z,1004.92
2017-05-05T02:34:05.661Z,1004.96
2017-05-05T02:34:46.185Z,1004.95
2017-05-05T02:35:26.723Z,1004.95
2017-05-05T02:36:07.232Z,1004.94
2017-05-05T02:36:47.719Z,1004.95
2017-05-05T02:37:28.251Z,1004.99
2017-05-05T02:38:08.786Z,1004.97
2017-05-05T02:38:49.318Z,1004.95
2017-05-05T02:39:29.846Z,1004.95
2017-05-05T02:40:10.383Z,1004.96
2017-05-05T02:40:50.906Z,1004.96
2017-05-05T02:41:31.421Z,1004.94
2017-05-05T02:42:11.957Z,1004.96
2017-05-05T02:42:52.479Z,1004.97
2017-05-05T02:43:33.005Z,1004.99
2017-05-05T02:44:13.524Z,1004.95
2017-05-05T02:44:54.057Z,1004.96
2017-05-05T02:45:34.575Z,1004.95
2017-05-05T02:46:15.094Z,1004.98
2017-05-05T02:46:55.611Z,1004.98
2017-05-05T02:47:36.127Z,1005.02
2017-05-05T02:48:16.718Z,1004.99
2017-05-05T02:48:57.243Z,1005
2017-05-05T02:49:37.771Z,1004.98
2017-05-05T02:50:18.373Z,1004.99
2017-05-05T02:50:58.902Z,1004.95
2017-05-05T02:51:39.414Z,1004.93
2017-05-05T02:52:19.922Z,1005.02
2017-05-05T02:53:00.438Z,1004.95
2017-05-05T02:53:40.970Z,1005
2017-05-05T02:54:21.471Z,1004.99
2017-05-05T02:55:01.987Z,1004.95
2017-05-05T02:55:42.521Z,1004.98
2017-05-05T02:56:23.060Z,1004.97
2017-05-05T02:57:03.562Z,1004.95
2017-05-05T02:57:44.054Z,1004.91
2017-05-05T02:58:24.575Z,1004.94
2017-05-05T02:59:05.092Z,1004.93
2017-05-05T02:59:45.611Z,1004.95
2017-05-05T03:00:26.131Z,1004.93
2017-05-05T03:01:06.646Z,1004.92
2017-05-05T03:01:47.188Z,1004.95
2017-05-05T03:02:27.708Z,1004.93
2017-05-05T03:03:08.243Z,1004.96
2017-05-05T03:03:48.777Z,1004.97
2017-05-05T03:04:29.309Z,1004.99
2017-05-05T03:05:09.840Z,1004.99
2017-05-05T03:05:50.359Z,1005.02
2017-05-05T03:06:30.900Z,1004.99
2017-05-05T03:07:11.413Z,1004.98
2017-05-05T03:07:51.936Z,1005.02
2017-05-05T03:08:32.458Z,1005.02
2017-05-05T03:09:12.991Z,1004.99
2017-05-05T03:09:53.535Z,1004.97
2017-05-05T03:10:34.014Z,1004.92
2017-05-05T03:11:14.542Z,1004.93
2017-05-05T03:11:55.039Z,1004.94
2017-05-05T03:12:35.554Z,1004.92
2017-05-05T03:13:16.037Z,1004.95
2017-05-05T03:13:56.526Z,1004.95
2017-05-05T03:14:37.018Z,1004.95
2017-05-05T03:15:17.545Z,1004.95
2017-05-05T03:15:58.056Z,1004.96
2017-05-05T03:16:38.587Z,1004.97
2017-05-05T03:17:19.108Z,1004.98
2017-05-05T03:17:59.630Z,1004.92
2017-05-05T03:18:40.143Z,1004.91
2017-05-05T03:19:20.661Z,1004.89
2017-05-05T03:20:01.184Z,1004.91
2017-05-05T03:20:41.708Z,1004.92
2017-05-05T03:21:22.236Z,1004.93
2017-05-05T03:22:02.766Z,1004.91
2017-05-05T03:22:43.320Z,1004.97
2017-05-05T03:23:23.825Z,1004.98
2017-05-05T03:24:04.346Z,1004.99
2017-05-05T03:24:44.880Z,1005
2017-05-05T03:25:25.402Z,1005
2017-05-05T03:26:05.936Z,1004.98
2017-05-05T03:26:46.494Z,1005.01
2017-05-05T03:27:26.984Z,1004.98
2017-05-05T03:28:07.518Z,1004.99
2017-05-05T03:30:00.676Z,1004.99
2017-05-05T03:30:41.189Z,1004.99
2017-05-05T03:31:21.712Z,1004.99
2017-05-05T03:32:02.224Z,1005.01
2017-05-05T03:32:42.723Z,1005.01
2017-05-05T03:33:23.237Z,1005
2017-05-05T03:34:03.765Z,1005.02
2017-05-05T03:34:44.280Z,1005.05
2017-05-05T03:35:24.813Z,1005.01
2017-05-05T03:36:05.298Z,1005.04
2017-05-05T03:36:45.842Z,1005.01
2017-05-05T03:37:26.353Z,1005.02
2017-05-05T03:38:06.878Z,1004.99
2017-05-05T03:38:47.428Z,1005.02
2017-05-05T03:39:27.927Z,1005.02
2017-05-05T03:40:08.425Z,1005
2017-05-05T03:40:48.942Z,1005.02
2017-05-05T03:41:29.408Z,1005.01
2017-05-05T03:42:09.902Z,1005.01
2017-05-05T03:42:50.393Z,1005
2017-05-05T03:43:30.873Z,1005.07
2017-05-05T03:44:11.413Z,1005.05
2017-05-05T03:44:51.936Z,1005.04
2017-05-05T03:45:32.419Z,1005.04
2017-05-05T03:46:12.895Z,1005.08
2017-05-05T03:46:53.448Z,1005.07
2017-05-05T03:47:33.917Z,1005.1
2017-05-05T03:48:14.448Z,1005.04
2017-05-05T03:48:54.898Z,1005.06
2017-05-05T03:49:35.393Z,1005.06
2017-05-05T03:50:15.903Z,1005.07
2017-05-05T03:50:56.399Z,1005.06
2017-05-05T03:51:36.939Z,1005.06
2017-05-05T03:52:17.499Z,1005.03
2017-05-05T03:52:57.976Z,1005.05
2017-05-05T03:53:38.453Z,1005.09
2017-05-05T03:54:18.963Z,1005.08
2017-05-05T03:54:59.424Z,1005.08
2017-05-05T03:55:39.925Z,1005.07
2017-05-05T03:56:20.433Z,1005.05
2017-05-05T03:57:00.957Z,1005.08
2017-05-05T03:57:41.473Z,1005.08
2017-05-05T03:58:21.991Z,1005.08
2017-05-05T03:59:02.531Z,1005.06
2017-05-05T03:59:43.054Z,1005.05
2017-05-05T04:00:23.586Z,1005.04
2017-05-05T04:01:04.096Z,1005.06
2017-05-05T04:01:44.628Z,1005.03
2017-05-05T04:02:25.151Z,1005.03
2017-05-05T04:03:05.668Z,1005.02
2017-05-05T04:03:46.153Z,1005.01
2017-05-05T04:04:26.671Z,1005.05
2017-05-05T04:05:07.128Z,1005.07
2017-05-05T04:05:47.648Z,1005.03
2017-05-05T04:06:28.180Z,1005.09
2017-05-05T04:07:08.696Z,1005.03
2017-05-05T04:07:49.192Z,1005.05
2017-05-05T04:08:29.717Z,1005.09
2017-05-05T04:09:10.253Z,1005.1
2017-05-05T04:09:50.730Z,1005.07
2017-05-05T04:10:31.269Z,1005.09
2017-05-05T04:11:11.725Z,1005.07
2017-05-05T04:11:52.256Z,1005.13
2017-05-05T04:12:32.781Z,1005.16
2017-05-05T04:13:13.312Z,1005.13
2017-05-05T04:13:53.832Z,1005.11
2017-05-05T04:14:34.355Z,1005.13
2017-05-05T04:15:14.869Z,1005.14
2017-05-05T04:15:55.383Z,1005.13
2017-05-05T04:16:35.895Z,1005.13
2017-05-05T04:17:16.415Z,1005.12
2017-05-05T04:17:56.927Z,1005.14
2017-05-05T04:18:37.679Z,1005.14
2017-05-05T04:19:18.196Z,1005.21
2017-05-05T04:19:58.737Z,1005.16
2017-05-05T04:20:39.259Z,1005.22
2017-05-05T04:21:19.780Z,1005.16
2017-05-05T04:22:00.295Z,1005.18
2017-05-05T04:22:40.817Z,1005.2
2017-05-05T04:23:21.341Z,1005.24
2017-05-05T04:24:01.853Z,1005.23
2017-05-05T04:24:42.482Z,1005.18
2017-05-05T04:25:22.984Z,1005.24
2017-05-05T04:26:03.511Z,1005.2
2017-05-05T04:26:44.033Z,1005.22
2017-05-05T04:27:24.543Z,1005.2
2017-05-05T04:28:05.068Z,1005.19
2017-05-05T04:28:45.586Z,1005.21
2017-05-05T04:29:26.103Z,1005.21
2017-05-05T04:30:06.620Z,1005.23
2017-05-05T04:30:47.141Z,1005.25
2017-05-05T04:31:27.662Z,1005.25
2017-05-05T04:32:08.190Z,1005.22
2017-05-05T04:32:48.710Z,1005.27
2017-05-05T04:33:29.231Z,1005.23
2017-05-05T04:34:09.742Z,1005.26
2017-05-05T04:34:50.269Z,1005.27
2017-05-05T04:35:30.796Z,1005.28
2017-05-05T04:36:11.307Z,1005.29
2017-05-05T04:36:51.829Z,1005.33
2017-05-05T04:37:32.345Z,1005.3
2017-05-05T04:38:12.888Z,1005.27
2017-05-05T04:38:53.419Z,1005.29
2017-05-05T04:39:33.931Z,1005.31
2017-05-05T04:40:14.454Z,1005.31
2017-05-05T04:40:54.981Z,1005.31
2017-05-05T04:41:35.507Z,1005.36
2017-05-05T04:42:16.030Z,1005.38
2017-05-05T04:42:56.550Z,1005.36
2017-05-05T04:43:37.071Z,1005.35
2017-05-05T04:44:17.605Z,1005.36
2017-05-05T04:44:58.121Z,1005.34
2017-05-05T04:45:38.634Z,1005.37
2017-05-05T04:46:19.167Z,1005.36
2017-05-05T04:46:59.698Z,1005.41
2017-05-05T04:47:40.216Z,1005.39
2017-05-05T04:48:20.749Z,1005.41
2017-05-05T04:49:01.265Z,1005.41
2017-05-05T04:49:41.786Z,1005.41
2017-05-05T04:50:22.307Z,1005.39
2017-05-05T04:51:02.834Z,1005.41
2017-05-05T04:51:43.357Z,1005.37
2017-05-05T04:52:23.876Z,1005.36
2017-05-05T04:53:04.403Z,1005.39
2017-05-05T04:53:44.937Z,1005.38
2017-05-05T04:54:25.465Z,1005.37
2017-05-05T04:55:06.000Z,1005.4
2017-05-05T04:55:46.515Z,1005.42
2017-05-05T04:56:27.032Z,1005.4
2017-05-05T04:57:07.556Z,1005.41
2017-05-05T04:57:48.075Z,1005.4
2017-05-05T04:58:28.596Z,1005.36
2017-05-05T04:59:09.110Z,1005.45
2017-05-05T04:59:49.633Z,1005.43
2017-05-05T05:00:30.152Z,1005.44
2017-05-05T05:01:10.687Z,1005.4
2017-05-05T05:01:51.208Z,1005.41
2017-05-05T05:02:31.746Z,1005.44
2017-05-05T05:03:12.266Z,1005.4
2017-05-05T05:03:52.787Z,1005.45
2017-05-05T05:04:33.390Z,1005.45
2017-05-05T05:05:13.919Z,1005.42
2017-05-05T05:05:54.437Z,1005.46
2017-05-05T05:06:34.955Z,1005.46
2017-05-05T05:07:15.473Z,1005.46
2017-05-05T05:07:55.996Z,1005.48
2017-05-05T05:08:36.525Z,1005.48
2017-05-05T05:09:17.042Z,1005.54
2017-05-05T05:09:57.569Z,1005.48
2017-05-05T05:10:38.090Z,1005.53
2017-05-05T05:11:18.614Z,1005.53
2017-05-05T05:11:59.131Z,1005.5
2017-05-05T05:12:39.651Z,1005.52
2017-05-05T05:13:20.170Z,1005.56
2017-05-05T05:14:00.690Z,1005.55
2017-05-05T05:14:41.217Z,1005.53
2017-05-05T05:15:21.742Z,1005.59
2017-05-05T05:16:02.267Z,1005.6
2017-05-05T05:16:42.788Z,1005.57
2017-05-05T05:17:23.332Z,1005.52
2017-05-05T05:18:03.855Z,1005.55
2017-05-05T05:18:44.370Z,1005.58
2017-05-05T05:19:24.898Z,1005.57
2017-05-05T05:20:05.413Z,1005.58
2017-05-05T05:20:45.947Z,1005.56
2017-05-05T05:21:26.462Z,1005.6
2017-05-05T05:22:06.988Z,1005.61
2017-05-05T05:22:47.526Z,1005.6
2017-05-05T05:23:28.039Z,1005.6
2017-05-05T05:24:08.555Z,1005.59
2017-05-05T05:24:49.104Z,1005.57
2017-05-05T05:25:29.619Z,1005.61
2017-05-05T05:26:10.158Z,1005.61
2017-05-05T05:26:50.675Z,1005.64
2017-05-05T05:27:31.201Z,1005.65
2017-05-05T05:28:11.724Z,1005.62
2017-05-05T05:28:52.240Z,1005.63
2017-05-05T05:29:32.762Z,1005.64
2017-05-05T05:30:13.285Z,1005.66
2017-05-05T05:30:53.804Z,1005.65
2017-05-05T05:31:34.327Z,1005.64
2017-05-05T05:32:14.848Z,1005.62
2017-05-05T05:32:55.386Z,1005.68
2017-05-05T05:33:35.896Z,1005.66
2017-05-05T05:34:16.411Z,1005.69
2017-05-05T05:34:56.935Z,1005.69
2017-05-05T05:35:37.488Z,1005.69
2017-05-05T05:36:18.000Z,1005.7
2017-05-05T05:36:58.515Z,1005.71
2017-05-05T05:37:39.034Z,1005.75
2017-05-05T05:38:19.559Z,1005.7
2017-05-05T05:39:00.308Z,1005.75
2017-05-05T05:39:40.816Z,1005.75
2017-05-05T05:40:21.325Z,1005.76
2017-05-05T05:41:01.836Z,1005.78
2017-05-05T05:41:42.345Z,1005.78
2017-05-05T05:42:22.857Z,1005.81
2017-05-05T05:43:03.387Z,1005.78
2017-05-05T05:43:43.921Z,1005.77
2017-05-05T05:44:24.458Z,1005.79
2017-05-05T05:45:04.991Z,1005.82
2017-05-05T05:45:45.521Z,1005.83
2017-05-05T05:46:26.053Z,1005.79
2017-05-05T05:47:06.580Z,1005.88
2017-05-05T05:47:47.497Z,1005.85
2017-05-05T05:48:28.034Z,1005.85
2017-05-05T05:49:08.554Z,1005.9
2017-05-05T05:49:49.623Z,1005.9
2017-05-05T05:50:30.152Z,1005.9
2017-05-05T05:51:10.670Z,1005.89
2017-05-05T05:51:51.192Z,1005.85
2017-05-05T05:52:31.715Z,1005.87
2017-05-05T05:53:12.511Z,1005.83
2017-05-05T05:53:53.452Z,1005.83
2017-05-05T05:54:33.975Z,1005.86
2017-05-05T05:55:14.516Z,1005.81
2017-05-05T05:55:55.072Z,1005.87
2017-05-05T05:56:35.590Z,1005.89
2017-05-05T05:57:16.103Z,1005.82
2017-05-05T05:57:56.612Z,1005.85
2017-05-05T05:58:37.123Z,1005.83
2017-05-05T05:59:17.936Z,1005.89
2017-05-05T05:59:58.519Z,1005.89
2017-05-05T06:00:39.029Z,1005.88
2017-05-05T06:01:19.547Z,1005.94
2017-05-05T06:02:00.076Z,1005.86
2017-05-05T06:02:40.598Z,1005.89
2017-05-05T06:03:21.126Z,1005.81
2017-05-05T06:04:01.654Z,1005.85
2017-05-05T06:04:42.248Z,1005.87
2017-05-05T06:05:22.760Z,1005.85
2017-05-05T06:06:03.280Z,1005.85
2017-05-05T06:08:01.450Z,1005.95
2017-05-05T06:08:41.969Z,1005.91
2017-05-05T06:09:22.514Z,1005.92
2017-05-05T06:10:03.016Z,1005.92
2017-05-05T06:10:43.721Z,1005.95
2017-05-05T06:11:24.060Z,1005.93
2017-05-05T06:12:04.590Z,1005.89
2017-05-05T06:12:45.083Z,1005.93
2017-05-05T06:13:25.599Z,1005.93
2017-05-05T06:14:06.126Z,1005.95
2017-05-05T06:14:46.660Z,1005.92
2017-05-05T06:15:27.185Z,1005.94
2017-05-05T06:16:07.708Z,1005.92
2017-05-05T06:16:48.236Z,1005.96
2017-05-05T06:17:28.759Z,1005.92
2017-05-05T06:18:09.275Z,1005.92
2017-05-05T06:18:49.790Z,1005.9
2017-05-05T06:19:30.342Z,1005.89
2017-05-05T06:20:10.847Z,1005.89
2017-05-05T06:20:51.382Z,1005.88
2017-05-05T06:21:31.905Z,1005.88
2017-05-05T06:22:12.422Z,1005.81
2017-05-05T06:22:52.948Z,1005.81
2017-05-05T06:23:33.461Z,1005.81
2017-05-05T06:24:13.985Z,1005.81
2017-05-05T06:24:54.507Z,1005.79
2017-05-05T06:25:35.021Z,1005.85
2017-05-05T06:26:15.541Z,1005.84
2017-05-05T06:26:56.053Z,1005.86
2017-05-05T06:27:36.571Z,1005.88
2017-05-05T06:28:17.118Z,1005.89
2017-05-05T06:28:57.620Z,1005.88
2017-05-05T06:29:38.140Z,1005.9
2017-05-05T06:30:18.658Z,1005.94
2017-05-05T06:30:59.173Z,1005.95
2017-05-05T06:31:39.694Z,1005.87
2017-05-05T06:32:20.218Z,1005.9
2017-05-05T06:33:00.736Z,1005.95
2017-05-05T06:33:41.254Z,1005.93
2017-05-05T06:34:21.767Z,1005.94
2017-05-05T06:35:02.294Z,1006
2017-05-05T06:35:42.829Z,1006.01
2017-05-05T06:36:23.348Z,1005.99
2017-05-05T06:37:03.867Z,1006.01
2017-05-05T06:37:44.403Z,1006.03
2017-05-05T06:38:24.900Z,1006.03
2017-05-05T06:39:05.432Z,1006.06
2017-05-05T06:39:45.948Z,1006.08
2017-05-05T06:40:26.479Z,1006.11
2017-05-05T06:41:07.005Z,1006.1
2017-05-05T06:41:47.516Z,1006.16
2017-05-05T06:42:28.038Z,1006.15
2017-05-05T06:43:08.575Z,1006.16
2017-05-05T06:43:49.087Z,1006.16
2017-05-05T06:44:29.612Z,1006.21
2017-05-05T06:45:10.143Z,1006.16
2017-05-05T06:45:50.710Z,1006.2
2017-05-05T06:46:31.231Z,1006.2
2017-05-05T06:47:11.750Z,1006.18
2017-05-05T06:47:52.263Z,1006.21
2017-05-05T06:48:32.784Z,1006.21
2017-05-05T06:49:13.308Z,1006.15
2017-05-05T06:49:53.831Z,1006.15
2017-05-05T06:50:34.351Z,1006.15
2017-05-05T06:51:14.862Z,1006.16
2017-05-05T06:51:55.391Z,1006.18
2017-05-05T06:52:35.930Z,1006.15
2017-05-05T06:53:16.472Z,1006.17
2017-05-05T06:53:56.981Z,1006.18
2017-05-05T06:54:37.507Z,1006.18
2017-05-05T06:55:18.037Z,1006.2
2017-05-05T06:55:58.565Z,1006.19
2017-05-05T06:56:39.091Z,1006.16
2017-05-05T06:57:19.613Z,1006.2
2017-05-05T06:58:00.129Z,1006.17
2017-05-05T06:58:40.646Z,1006.22
2017-05-05T06:59:21.171Z,1006.21
2017-05-05T07:00:01.681Z,1006.21
2017-05-05T07:00:42.212Z,1006.25
2017-05-05T07:01:22.794Z,1006.25
2017-05-05T07:02:03.324Z,1006.27
2017-05-05T07:02:43.843Z,1006.28
2017-05-05T07:03:24.357Z,1006.23
2017-05-05T07:04:04.888Z,1006.28
2017-05-05T07:04:45.395Z,1006.28
2017-05-05T07:05:25.913Z,1006.31
2017-05-05T07:06:06.462Z,1006.3
2017-05-05T07:06:46.969Z,1006.36
2017-05-05T07:07:27.490Z,1006.34
2017-05-05T07:08:08.013Z,1006.34
2017-05-05T07:08:48.545Z,1006.32
2017-05-05T07:09:29.062Z,1006.41
2017-05-05T07:10:09.585Z,1006.34
2017-05-05T07:10:50.109Z,1006.34
2017-05-05T07:11:30.625Z,1006.41
2017-05-05T07:12:11.139Z,1006.37
2017-05-05T07:12:51.658Z,1006.39
2017-05-05T07:13:32.175Z,1006.38
2017-05-05T07:14:12.681Z,1006.38
2017-05-05T07:14:53.200Z,1006.38
2017-05-05T07:15:33.762Z,1006.4
2017-05-05T07:16:14.292Z,1006.39
2017-05-05T07:16:54.813Z,1006.44
2017-05-05T07:17:35.334Z,1006.43
2017-05-05T07:18:15.867Z,1006.44
2017-05-05T07:18:56.399Z,1006.44
2017-05-05T07:19:36.926Z,1006.44
2017-05-05T07:20:17.451Z,1006.42
2017-05-05T07:20:57.973Z,1006.42
2017-05-05T07:21:38.504Z,1006.41
2017-05-05T07:22:19.074Z,1006.4
2017-05-05T07:22:59.600Z,1006.41
2017-05-05T07:23:40.131Z,1006.42
2017-05-05T07:24:20.662Z,1006.42
2017-05-05T07:25:01.184Z,1006.42
2017-05-05T07:25:41.702Z,1006.4
2017-05-05T07:26:22.245Z,1006.42
2017-05-05T07:27:02.763Z,1006.44
2017-05-05T07:27:43.276Z,1006.47
2017-05-05T07:28:23.790Z,1006.47
2017-05-05T07:29:04.309Z,1006.48
2017-05-05T07:29:44.836Z,1006.44
2017-05-05T07:30:25.362Z,1006.47
2017-05-05T07:31:05.883Z,1006.48
2017-05-05T07:31:46.444Z,1006.51
2017-05-05T07:32:27.007Z,1006.49
2017-05-05T07:33:07.505Z,1006.47
2017-05-05T07:33:48.033Z,1006.43
2017-05-05T07:34:28.556Z,1006.46
2017-05-05T07:35:09.065Z,1006.45
2017-05-05T07:35:49.583Z,1006.46
2017-05-05T07:36:30.103Z,1006.47
2017-05-05T07:37:10.638Z,1006.42
2017-05-05T07:37:51.161Z,1006.45
2017-05-05T07:38:31.692Z,1006.44
2017-05-05T07:39:12.208Z,1006.4
2017-05-05T07:39:52.741Z,1006.42
2017-05-05T07:40:33.286Z,1006.42
2017-05-05T07:41:13.801Z,1006.42
2017-05-05T07:41:54.686Z,1006.38
2017-05-05T07:42:35.264Z,1006.36
2017-05-05T07:43:15.736Z,1006.38
2017-05-05T07:43:56.271Z,1006.36
2017-05-05T07:44:36.875Z,1006.37
2017-05-05T07:45:17.397Z,1006.37
2017-05-05T07:45:57.915Z,1006.38
2017-05-05T07:46:38.432Z,1006.36
2017-05-05T07:47:18.946Z,1006.35
2017-05-05T07:47:59.458Z,1006.37
2017-05-05T07:48:39.988Z,1006.37
2017-05-05T07:49:20.502Z,1006.36
2017-05-05T07:50:01.035Z,1006.41
2017-05-05T07:50:41.539Z,1006.37
2017-05-05T07:51:22.062Z,1006.44
2017-05-05T07:52:02.597Z,1006.38
2017-05-05T07:52:43.123Z,1006.4
2017-05-05T07:53:23.644Z,1006.42
2017-05-05T07:54:04.172Z,1006.38
2017-05-05T07:54:44.698Z,1006.39
2017-05-05T07:55:25.235Z,1006.41
2017-05-05T07:56:05.756Z,1006.41
2017-05-05T07:56:46.276Z,1006.39
2017-05-05T07:57:26.829Z,1006.39
2017-05-05T07:58:07.355Z,1006.4
2017-05-05T07:58:47.880Z,1006.39
2017-05-05T07:59:28.405Z,1006.35
2017-05-05T08:00:08.952Z,1006.31
2017-05-05T08:00:49.476Z,1006.3
2017-05-05T08:01:30.001Z,1006.34
2017-05-05T08:02:10.511Z,1006.28
2017-05-05T08:02:51.023Z,1006.31
2017-05-05T08:03:31.548Z,1006.29
2017-05-05T08:04:12.077Z,1006.28
2017-05-05T08:04:52.595Z,1006.27
2017-05-05T08:05:33.116Z,1006.26
2017-05-05T08:06:13.636Z,1006.24
2017-05-05T08:06:54.226Z,1006.31
2017-05-05T08:07:34.765Z,1006.25
2017-05-05T08:08:15.283Z,1006.28
2017-05-05T08:08:55.802Z,1006.25
2017-05-05T08:09:36.319Z,1006.29
2017-05-05T08:10:16.832Z,1006.28
2017-05-05T08:10:57.353Z,1006.28
2017-05-05T08:11:37.893Z,1006.33
2017-05-05T08:12:18.423Z,1006.37
2017-05-05T08:12:58.949Z,1006.39
2017-05-05T08:13:39.464Z,1006.36
2017-05-05T08:14:19.975Z,1006.33